Riondel, Canada
Current Conditions -  °F | °C
As of 4:00 PM on Monday 20 Oct 2014 (Local Time) from CYCG Reporting Station
Broken Clouds Broken Clouds  
Wind Chill: 63°   Ceiling: 10000
Heat Index: 63°   Visibility: 15mi
Dew Point: 50°   Wind: 2mph
Humidity: 63%   Direction: 170°S
Pressure: 29.71"   Gusts: NA
Location:  49.77°N, 116.85°W
Report Text: CYCG 202300Z 17002KT 15SM FEW070 BKN100 17/10 A2971 RMK AC2AC5 SLP064 DENSITY ALT 2400FT
Loading
Personal Weather Stations






























Interactive Weather Map
Tropical Storm Tracking
New forecast layout! Learn more

10-Day Weather Forecast

Advertisements
Track Severe Weather on mobile